Taylor Hill, Louisiana
Current Conditions -  °F | °C
As of 5:53 PM on Saturday 25 Oct 2014 (Local Time) from KAEX Reporting Station
Clear Clear  
Wind Chill: 79°   Ceiling: Unl
Heat Index: 79°   Visibility: 10mi
Dew Point: 53°   Wind: 5mph
Humidity: 40%   Direction: 230°SW
Pressure: 30.06"   Gusts: NA
Location:  31.4254°N, 92.7765°W
Report Text: KAEX 252253Z AUTO 23004KT 10SM CLR 26/12 A3006 RMK AO2 SLP183 T02610117 $
Loading
Personal Weather Stations






























Interactive Weather Map
Tropical Storm Tracking
New forecast layout! Learn more

10-Day Weather Forecast

Advertisements
Track Severe Weather on mobile